sensor_id;sensor_type;location;lat;lon;timestamp;temperature;humidity
57218;DHT22;43078;52.972;6.482;2022-12-18T00:01:25;-1.30;99.90
57218;DHT22;43078;52.972;6.482;2022-12-18T00:03:52;-1.30;99.90
57218;DHT22;43078;52.972;6.482;2022-12-18T00:06:19;-1.40;99.90
57218;DHT22;43078;52.972;6.482;2022-12-18T00:08:45;-1.40;99.90
57218;DHT22;43078;52.972;6.482;2022-12-18T00:11:14;-1.40;99.90
57218;DHT22;43078;52.972;6.482;2022-12-18T00:13:40;-1.40;99.90
57218;DHT22;43078;52.972;6.482;2022-12-18T00:16:09;-1.40;99.90
57218;DHT22;43078;52.972;6.482;2022-12-18T00:18:35;-1.50;99.90
57218;DHT22;43078;52.972;6.482;2022-12-18T00:21:04;-1.50;99.90
57218;DHT22;43078;52.972;6.482;2022-12-18T00:23:33;-1.50;99.90
57218;DHT22;43078;52.972;6.482;2022-12-18T00:26:00;-1.50;99.90
57218;DHT22;43078;52.972;6.482;2022-12-18T00:28:26;-1.40;99.90
57218;DHT22;43078;52.972;6.482;2022-12-18T00:31:06;-1.40;99.90
57218;DHT22;43078;52.972;6.482;2022-12-18T00:33:32;-1.40;99.90
57218;DHT22;43078;52.972;6.482;2022-12-18T00:36:06;-1.30;99.90
57218;DHT22;43078;52.972;6.482;2022-12-18T00:38:33;-1.30;99.90
57218;DHT22;43078;52.972;6.482;2022-12-18T00:40:59;-1.30;99.90
57218;DHT22;43078;52.972;6.482;2022-12-18T00:43:25;-1.30;99.90
57218;DHT22;43078;52.972;6.482;2022-12-18T00:45:51;-1.20;99.90
57218;DHT22;43078;52.972;6.482;2022-12-18T00:48:16;-1.20;99.90
57218;DHT22;43078;52.972;6.482;2022-12-18T00:50:42;-1.20;99.90
57218;DHT22;43078;52.972;6.482;2022-12-18T00:53:08;-1.20;99.90
57218;DHT22;43078;52.972;6.482;2022-12-18T00:55:33;-1.20;99.90
57218;DHT22;43078;52.972;6.482;2022-12-18T00:57:59;-1.20;99.90
57218;DHT22;43078;52.972;6.482;2022-12-18T01:00:25;-1.20;99.90
57218;DHT22;43078;52.972;6.482;2022-12-18T01:02:50;-1.20;99.90
57218;DHT22;43078;52.972;6.482;2022-12-18T01:05:16;-1.20;99.90
57218;DHT22;43078;52.972;6.482;2022-12-18T01:07:42;-1.10;99.90
57218;DHT22;43078;52.972;6.482;2022-12-18T01:10:09;-1.20;99.90
57218;DHT22;43078;52.972;6.482;2022-12-18T01:12:35;-1.20;99.90
57218;DHT22;43078;52.972;6.482;2022-12-18T01:15:01;-1.20;99.90
57218;DHT22;43078;52.972;6.482;2022-12-18T01:17:26;-1.20;99.90
57218;DHT22;43078;52.972;6.482;2022-12-18T01:19:52;-1.20;99.90
57218;DHT22;43078;52.972;6.482;2022-12-18T01:22:17;-1.20;99.90
57218;DHT22;43078;52.972;6.482;2022-12-18T01:24:43;-1.20;99.90
57218;DHT22;43078;52.972;6.482;2022-12-18T01:27:08;-1.20;99.90
57218;DHT22;43078;52.972;6.482;2022-12-18T01:29:34;-1.20;99.90
57218;DHT22;43078;52.972;6.482;2022-12-18T01:32:00;-1.20;99.90
57218;DHT22;43078;52.972;6.482;2022-12-18T01:34:25;-1.20;99.90
57218;DHT22;43078;52.972;6.482;2022-12-18T01:36:51;-1.20;99.90
57218;DHT22;43078;52.972;6.482;2022-12-18T01:39:18;-1.20;99.90
57218;DHT22;43078;52.972;6.482;2022-12-18T01:41:45;-1.20;99.90
57218;DHT22;43078;52.972;6.482;2022-12-18T01:49:49;-1.30;99.90
57218;DHT22;43078;52.972;6.482;2022-12-18T01:52:15;-1.30;99.90
57218;DHT22;43078;52.972;6.482;2022-12-18T01:54:42;-1.40;99.90
57218;DHT22;43078;52.972;6.482;2022-12-18T01:57:07;-1.40;99.90
57218;DHT22;43078;52.972;6.482;2022-12-18T01:59:33;-1.40;99.90
57218;DHT22;43078;52.972;6.482;2022-12-18T02:02:01;-1.40;99.90
57218;DHT22;43078;52.972;6.482;2022-12-18T02:04:27;-1.40;99.90
57218;DHT22;43078;52.972;6.482;2022-12-18T02:12:51;-1.40;99.90
57218;DHT22;43078;52.972;6.482;2022-12-18T02:15:40;-1.40;99.90
57218;DHT22;43078;52.972;6.482;2022-12-18T02:18:18;-1.50;99.90
57218;DHT22;43078;52.972;6.482;2022-12-18T02:20:54;-1.50;99.90
57218;DHT22;43078;52.972;6.482;2022-12-18T02:23:45;-1.50;99.90
57218;DHT22;43078;52.972;6.482;2022-12-18T02:31:25;-1.60;99.90
57218;DHT22;43078;52.972;6.482;2022-12-18T02:33:53;-1.60;99.90
57218;DHT22;43078;52.972;6.482;2022-12-18T02:36:22;-1.60;99.90
57218;DHT22;43078;52.972;6.482;2022-12-18T02:38:49;-1.60;99.90
57218;DHT22;43078;52.972;6.482;2022-12-18T02:41:16;-1.60;99.90
57218;DHT22;43078;52.972;6.482;2022-12-18T02:43:53;-1.60;99.90
57218;DHT22;43078;52.972;6.482;2022-12-18T02:48:53;-1.70;99.90
57218;DHT22;43078;52.972;6.482;2022-12-18T03:02:39;-1.80;99.90
57218;DHT22;43078;52.972;6.482;2022-12-18T03:05:22;-1.80;99.90
57218;DHT22;43078;52.972;6.482;2022-12-18T03:07:55;-1.80;99.90
57218;DHT22;43078;52.972;6.482;2022-12-18T03:10:29;-1.80;99.90
57218;DHT22;43078;52.972;6.482;2022-12-18T03:13:02;-1.80;99.90
57218;DHT22;43078;52.972;6.482;2022-12-18T03:15:34;-1.90;99.90
57218;DHT22;43078;52.972;6.482;2022-12-18T03:18:12;-1.90;99.90
57218;DHT22;43078;52.972;6.482;2022-12-18T03:20:39;-1.90;99.90
57218;DHT22;43078;52.972;6.482;2022-12-18T03:23:09;-1.90;99.90
57218;DHT22;43078;52.972;6.482;2022-12-18T03:25:38;-1.90;99.90
57218;DHT22;43078;52.972;6.482;2022-12-18T03:28:06;-2.00;99.90
57218;DHT22;43078;52.972;6.482;2022-12-18T03:30:36;-2.00;99.90
57218;DHT22;43078;52.972;6.482;2022-12-18T03:35:54;-2.00;99.90
57218;DHT22;43078;52.972;6.482;2022-12-18T03:38:19;-2.00;99.90
57218;DHT22;43078;52.972;6.482;2022-12-18T03:43:47;-2.10;99.90
57218;DHT22;43078;52.972;6.482;2022-12-18T03:46:21;-2.10;99.90
57218;DHT22;43078;52.972;6.482;2022-12-18T03:48:55;-2.10;99.90
57218;DHT22;43078;52.972;6.482;2022-12-18T03:51:27;-2.10;99.90
57218;DHT22;43078;52.972;6.482;2022-12-18T03:54:01;-2.10;99.90
57218;DHT22;43078;52.972;6.482;2022-12-18T03:56:35;-2.10;99.90
57218;DHT22;43078;52.972;6.482;2022-12-18T03:59:03;-2.10;99.90
57218;DHT22;43078;52.972;6.482;2022-12-18T04:01:36;-2.10;99.90
57218;DHT22;43078;52.972;6.482;2022-12-18T04:04:04;-2.20;99.90
57218;DHT22;43078;52.972;6.482;2022-12-18T04:06:34;-2.20;99.90
57218;DHT22;43078;52.972;6.482;2022-12-18T04:09:00;-2.20;99.90
57218;DHT22;43078;52.972;6.482;2022-12-18T04:11:26;-2.20;99.90
57218;DHT22;43078;52.972;6.482;2022-12-18T04:13:56;-2.30;99.90
57218;DHT22;43078;52.972;6.482;2022-12-18T04:16:26;-2.30;99.90
57218;DHT22;43078;52.972;6.482;2022-12-18T04:18:52;-2.30;99.90
57218;DHT22;43078;52.972;6.482;2022-12-18T04:21:18;-2.40;99.90
57218;DHT22;43078;52.972;6.482;2022-12-18T04:23:44;-2.40;99.90
57218;DHT22;43078;52.972;6.482;2022-12-18T04:26:10;-2.50;99.90
57218;DHT22;43078;52.972;6.482;2022-12-18T04:28:36;-2.50;99.90
57218;DHT22;43078;52.972;6.482;2022-12-18T04:31:01;-2.50;99.90
57218;DHT22;43078;52.972;6.482;2022-12-18T04:33:27;-2.50;99.90
57218;DHT22;43078;52.972;6.482;2022-12-18T04:35:53;-2.50;99.90
57218;DHT22;43078;52.972;6.482;2022-12-18T04:38:19;-2.50;99.90
57218;DHT22;43078;52.972;6.482;2022-12-18T04:40:44;-2.50;99.90
57218;DHT22;43078;52.972;6.482;2022-12-18T04:43:10;-2.50;99.90
57218;DHT22;43078;52.972;6.482;2022-12-18T04:45:36;-2.50;99.90
57218;DHT22;43078;52.972;6.482;2022-12-18T04:48:02;-2.50;99.90
57218;DHT22;43078;52.972;6.482;2022-12-18T04:50:28;-2.40;99.90
57218;DHT22;43078;52.972;6.482;2022-12-18T04:52:53;-2.50;99.90
57218;DHT22;43078;52.972;6.482;2022-12-18T04:55:19;-2.50;99.90
57218;DHT22;43078;52.972;6.482;2022-12-18T04:57:45;-2.50;99.90
57218;DHT22;43078;52.972;6.482;2022-12-18T05:00:10;-2.60;99.90
57218;DHT22;43078;52.972;6.482;2022-12-18T05:02:36;-2.60;99.90
57218;DHT22;43078;52.972;6.482;2022-12-18T05:05:02;-2.70;99.90
57218;DHT22;43078;52.972;6.482;2022-12-18T05:07:28;-2.70;99.90
57218;DHT22;43078;52.972;6.482;2022-12-18T05:09:53;-2.80;99.90
57218;DHT22;43078;52.972;6.482;2022-12-18T05:12:19;-2.80;99.90
57218;DHT22;43078;52.972;6.482;2022-12-18T05:14:45;-2.80;99.90
57218;DHT22;43078;52.972;6.482;2022-12-18T05:17:10;-2.90;99.90
57218;DHT22;43078;52.972;6.482;2022-12-18T05:19:36;-2.90;99.90
57218;DHT22;43078;52.972;6.482;2022-12-18T05:22:01;-2.90;99.90
57218;DHT22;43078;52.972;6.482;2022-12-18T05:24:27;-2.90;99.90
57218;DHT22;43078;52.972;6.482;2022-12-18T05:26:53;-2.90;99.90
57218;DHT22;43078;52.972;6.482;2022-12-18T05:29:18;-2.90;99.90
57218;DHT22;43078;52.972;6.482;2022-12-18T05:31:44;-2.90;99.90
57218;DHT22;43078;52.972;6.482;2022-12-18T05:34:09;-3.00;99.90
57218;DHT22;43078;52.972;6.482;2022-12-18T05:36:35;-3.00;99.90
57218;DHT22;43078;52.972;6.482;2022-12-18T05:39:00;-3.00;99.90
57218;DHT22;43078;52.972;6.482;2022-12-18T05:41:27;-3.00;99.90
57218;DHT22;43078;52.972;6.482;2022-12-18T05:43:52;-3.00;99.90
57218;DHT22;43078;52.972;6.482;2022-12-18T05:46:18;-3.10;99.90
57218;DHT22;43078;52.972;6.482;2022-12-18T05:48:44;-3.10;99.90
57218;DHT22;43078;52.972;6.482;2022-12-18T05:51:12;-3.20;99.90
57218;DHT22;43078;52.972;6.482;2022-12-18T05:53:39;-3.10;99.90
57218;DHT22;43078;52.972;6.482;2022-12-18T05:56:12;-3.20;99.90
57218;DHT22;43078;52.972;6.482;2022-12-18T05:58:38;-3.20;99.90
57218;DHT22;43078;52.972;6.482;2022-12-18T06:01:10;-3.20;99.90
57218;DHT22;43078;52.972;6.482;2022-12-18T06:03:36;-3.20;99.90
57218;DHT22;43078;52.972;6.482;2022-12-18T06:06:02;-3.30;99.90
57218;DHT22;43078;52.972;6.482;2022-12-18T06:08:28;-3.30;99.90
57218;DHT22;43078;52.972;6.482;2022-12-18T06:10:53;-3.30;99.90
57218;DHT22;43078;52.972;6.482;2022-12-18T06:13:20;-3.30;99.90
57218;DHT22;43078;52.972;6.482;2022-12-18T06:15:46;-3.30;99.90
57218;DHT22;43078;52.972;6.482;2022-12-18T06:18:11;-3.30;99.90
57218;DHT22;43078;52.972;6.482;2022-12-18T06:20:37;-3.40;99.90
57218;DHT22;43078;52.972;6.482;2022-12-18T06:23:05;-3.40;99.90
57218;DHT22;43078;52.972;6.482;2022-12-18T06:25:32;-3.40;99.90
57218;DHT22;43078;52.972;6.482;2022-12-18T06:27:58;-3.40;99.90
57218;DHT22;43078;52.972;6.482;2022-12-18T06:30:24;-3.40;99.90
57218;DHT22;43078;52.972;6.482;2022-12-18T06:32:49;-3.40;99.90
57218;DHT22;43078;52.972;6.482;2022-12-18T06:35:15;-3.50;99.90
57218;DHT22;43078;52.972;6.482;2022-12-18T06:37:41;-3.40;99.90
57218;DHT22;43078;52.972;6.482;2022-12-18T06:40:07;-3.40;99.90
57218;DHT22;43078;52.972;6.482;2022-12-18T06:42:32;-3.50;99.90
57218;DHT22;43078;52.972;6.482;2022-12-18T06:44:58;-3.40;99.90
57218;DHT22;43078;52.972;6.482;2022-12-18T06:47:24;-3.50;99.90
57218;DHT22;43078;52.972;6.482;2022-12-18T06:49:49;-3.50;99.90
57218;DHT22;43078;52.972;6.482;2022-12-18T06:52:15;-3.50;99.90
57218;DHT22;43078;52.972;6.482;2022-12-18T06:54:40;-3.50;99.90
57218;DHT22;43078;52.972;6.482;2022-12-18T06:57:06;-3.50;99.90
57218;DHT22;43078;52.972;6.482;2022-12-18T06:59:32;-3.50;99.90
57218;DHT22;43078;52.972;6.482;2022-12-18T07:01:57;-3.50;99.90
57218;DHT22;43078;52.972;6.482;2022-12-18T07:04:30;-3.50;99.90
57218;DHT22;43078;52.972;6.482;2022-12-18T07:06:56;-3.60;99.90
57218;DHT22;43078;52.972;6.482;2022-12-18T07:09:21;-3.60;99.90
57218;DHT22;43078;52.972;6.482;2022-12-18T07:11:47;-3.60;99.90
57218;DHT22;43078;52.972;6.482;2022-12-18T07:14:12;-3.70;99.90
57218;DHT22;43078;52.972;6.482;2022-12-18T07:16:38;-3.60;99.90
57218;DHT22;43078;52.972;6.482;2022-12-18T07:19:04;-3.70;99.90
57218;DHT22;43078;52.972;6.482;2022-12-18T07:21:29;-3.70;99.90
57218;DHT22;43078;52.972;6.482;2022-12-18T07:23:55;-3.70;99.90
57218;DHT22;43078;52.972;6.482;2022-12-18T07:26:21;-3.70;99.90
57218;DHT22;43078;52.972;6.482;2022-12-18T07:28:48;-3.80;99.90
57218;DHT22;43078;52.972;6.482;2022-12-18T07:31:19;-3.80;99.90
57218;DHT22;43078;52.972;6.482;2022-12-18T07:33:46;-3.80;99.90
57218;DHT22;43078;52.972;6.482;2022-12-18T07:36:12;-3.80;99.90
57218;DHT22;43078;52.972;6.482;2022-12-18T07:38:38;-3.90;99.90
57218;DHT22;43078;52.972;6.482;2022-12-18T07:41:05;-3.90;99.90
57218;DHT22;43078;52.972;6.482;2022-12-18T07:43:32;-3.90;99.90
57218;DHT22;43078;52.972;6.482;2022-12-18T07:45:58;-3.90;99.90
57218;DHT22;43078;52.972;6.482;2022-12-18T07:48:24;-3.90;99.90
57218;DHT22;43078;52.972;6.482;2022-12-18T07:50:49;-4.00;99.90
57218;DHT22;43078;52.972;6.482;2022-12-18T07:53:15;-4.00;99.90
57218;DHT22;43078;52.972;6.482;2022-12-18T07:55:41;-4.00;99.90
57218;DHT22;43078;52.972;6.482;2022-12-18T07:58:07;-4.00;99.90
57218;DHT22;43078;52.972;6.482;2022-12-18T08:00:33;-4.00;99.90
57218;DHT22;43078;52.972;6.482;2022-12-18T08:02:59;-4.00;99.90
57218;DHT22;43078;52.972;6.482;2022-12-18T08:05:25;-4.00;99.90
57218;DHT22;43078;52.972;6.482;2022-12-18T08:07:51;-4.00;99.90
57218;DHT22;43078;52.972;6.482;2022-12-18T08:10:17;-4.00;99.90
57218;DHT22;43078;52.972;6.482;2022-12-18T08:12:43;-4.10;99.90
57218;DHT22;43078;52.972;6.482;2022-12-18T08:15:09;-4.10;99.90
57218;DHT22;43078;52.972;6.482;2022-12-18T08:17:35;-4.10;99.90
57218;DHT22;43078;52.972;6.482;2022-12-18T08:20:00;-4.10;99.90
57218;DHT22;43078;52.972;6.482;2022-12-18T08:22:26;-4.10;99.90
57218;DHT22;43078;52.972;6.482;2022-12-18T08:24:51;-4.00;99.90
57218;DHT22;43078;52.972;6.482;2022-12-18T08:27:17;-4.10;99.90
57218;DHT22;43078;52.972;6.482;2022-12-18T08:29:43;-4.10;99.90
57218;DHT22;43078;52.972;6.482;2022-12-18T08:32:08;-4.10;99.90
57218;DHT22;43078;52.972;6.482;2022-12-18T08:34:34;-4.10;99.90
57218;DHT22;43078;52.972;6.482;2022-12-18T08:37:00;-4.00;99.90
57218;DHT22;43078;52.972;6.482;2022-12-18T08:39:26;-4.10;99.90
57218;DHT22;43078;52.972;6.482;2022-12-18T08:41:51;-4.10;99.90
57218;DHT22;43078;52.972;6.482;2022-12-18T08:44:35;-4.10;99.90
57218;DHT22;43078;52.972;6.482;2022-12-18T08:47:05;-4.10;99.90
57218;DHT22;43078;52.972;6.482;2022-12-18T08:49:30;-4.10;99.90
57218;DHT22;43078;52.972;6.482;2022-12-18T08:51:57;-4.10;99.90
57218;DHT22;43078;52.972;6.482;2022-12-18T08:54:23;-4.10;99.90
57218;DHT22;43078;52.972;6.482;2022-12-18T08:56:49;-4.10;99.90
57218;DHT22;43078;52.972;6.482;2022-12-18T08:59:16;-4.10;99.90
57218;DHT22;43078;52.972;6.482;2022-12-18T09:01:42;-4.00;99.90
57218;DHT22;43078;52.972;6.482;2022-12-18T09:04:11;-4.10;99.90
57218;DHT22;43078;52.972;6.482;2022-12-18T09:06:37;-4.00;99.90
57218;DHT22;43078;52.972;6.482;2022-12-18T09:09:04;-4.10;99.90
57218;DHT22;43078;52.972;6.482;2022-12-18T09:11:31;-4.00;99.90
57218;DHT22;43078;52.972;6.482;2022-12-18T09:13:57;-4.00;99.90
57218;DHT22;43078;52.972;6.482;2022-12-18T09:16:25;-4.00;99.90
57218;DHT22;43078;52.972;6.482;2022-12-18T09:18:51;-4.00;99.90
57218;DHT22;43078;52.972;6.482;2022-12-18T09:21:19;-4.00;99.90
57218;DHT22;43078;52.972;6.482;2022-12-18T09:23:50;-4.00;99.90
57218;DHT22;43078;52.972;6.482;2022-12-18T09:26:16;-4.00;99.90
57218;DHT22;43078;52.972;6.482;2022-12-18T09:28:42;-4.00;99.90
57218;DHT22;43078;52.972;6.482;2022-12-18T09:31:08;-3.90;99.90
57218;DHT22;43078;52.972;6.482;2022-12-18T09:33:35;-3.90;99.90
57218;DHT22;43078;52.972;6.482;2022-12-18T09:36:05;-3.90;99.90
57218;DHT22;43078;52.972;6.482;2022-12-18T09:38:32;-3.90;99.90
57218;DHT22;43078;52.972;6.482;2022-12-18T09:44:16;-3.80;99.90
57218;DHT22;43078;52.972;6.482;2022-12-18T09:46:53;-3.80;99.90
57218;DHT22;43078;52.972;6.482;2022-12-18T09:49:23;-3.70;99.90
57218;DHT22;43078;52.972;6.482;2022-12-18T09:52:00;-3.70;99.90
57218;DHT22;43078;52.972;6.482;2022-12-18T09:54:36;-3.60;99.90
57218;DHT22;43078;52.972;6.482;2022-12-18T09:57:04;-3.60;99.90
57218;DHT22;43078;52.972;6.482;2022-12-18T09:59:37;-3.60;99.90
57218;DHT22;43078;52.972;6.482;2022-12-18T10:02:20;-3.50;99.90
57218;DHT22;43078;52.972;6.482;2022-12-18T10:05:16;-3.40;99.90
57218;DHT22;43078;52.972;6.482;2022-12-18T10:10:16;-3.40;99.90
57218;DHT22;43078;52.972;6.482;2022-12-18T10:13:07;-3.40;99.90
57218;DHT22;43078;52.972;6.482;2022-12-18T10:15:56;-3.30;99.90
57218;DHT22;43078;52.972;6.482;2022-12-18T10:20:56;-3.20;99.90
57218;DHT22;43078;52.972;6.482;2022-12-18T10:23:39;-3.20;99.90
57218;DHT22;43078;52.972;6.482;2022-12-18T10:26:10;-3.10;99.90
57218;DHT22;43078;52.972;6.482;2022-12-18T10:28:39;-3.10;99.90
57218;DHT22;43078;52.972;6.482;2022-12-18T10:31:14;-3.10;99.90
57218;DHT22;43078;52.972;6.482;2022-12-18T10:33:42;-3.00;99.90
57218;DHT22;43078;52.972;6.482;2022-12-18T10:36:08;-3.00;99.90
57218;DHT22;43078;52.972;6.482;2022-12-18T10:38:34;-3.00;99.90
57218;DHT22;43078;52.972;6.482;2022-12-18T10:41:02;-2.90;99.90
57218;DHT22;43078;52.972;6.482;2022-12-18T10:43:36;-2.90;99.90
57218;DHT22;43078;52.972;6.482;2022-12-18T10:48:52;-2.80;99.90
57218;DHT22;43078;52.972;6.482;2022-12-18T10:56:26;-2.70;99.90
57218;DHT22;43078;52.972;6.482;2022-12-18T10:58:57;-2.70;99.90
57218;DHT22;43078;52.972;6.482;2022-12-18T11:01:23;-2.60;99.90
57218;DHT22;43078;52.972;6.482;2022-12-18T11:06:24;-2.60;99.90
57218;DHT22;43078;52.972;6.482;2022-12-18T11:09:04;-2.50;99.90
57218;DHT22;43078;52.972;6.482;2022-12-18T11:11:31;-2.50;99.90
57218;DHT22;43078;52.972;6.482;2022-12-18T11:14:04;-2.50;99.90
57218;DHT22;43078;52.972;6.482;2022-12-18T11:16:34;-2.40;99.90
57218;DHT22;43078;52.972;6.482;2022-12-18T11:19:37;-2.40;99.90
57218;DHT22;43078;52.972;6.482;2022-12-18T11:27:48;-2.30;99.90
57218;DHT22;43078;52.972;6.482;2022-12-18T11:30:27;-2.30;99.90
57218;DHT22;43078;52.972;6.482;2022-12-18T11:40:40;-2.10;99.90
57218;DHT22;43078;52.972;6.482;2022-12-18T11:43:17;-2.10;99.90
57218;DHT22;43078;52.972;6.482;2022-12-18T11:45:58;-2.10;99.90
57218;DHT22;43078;52.972;6.482;2022-12-18T11:48:32;-2.00;99.90
57218;DHT22;43078;52.972;6.482;2022-12-18T11:51:03;-2.00;99.90
57218;DHT22;43078;52.972;6.482;2022-12-18T11:53:30;-1.90;99.90
57218;DHT22;43078;52.972;6.482;2022-12-18T12:05:14;-1.80;99.90
57218;DHT22;43078;52.972;6.482;2022-12-18T12:08:19;-1.80;99.90
57218;DHT22;43078;52.972;6.482;2022-12-18T12:10:57;-1.80;99.90
57218;DHT22;43078;52.972;6.482;2022-12-18T12:14:00;-1.70;99.90
57218;DHT22;43078;52.972;6.482;2022-12-18T12:16:29;-1.70;99.90
57218;DHT22;43078;52.972;6.482;2022-12-18T12:30:33;-1.60;99.90
57218;DHT22;43078;52.972;6.482;2022-12-18T12:35:47;-1.60;99.90
57218;DHT22;43078;52.972;6.482;2022-12-18T12:38:16;-1.40;99.90
57218;DHT22;43078;52.972;6.482;2022-12-18T12:40:58;-1.50;99.90
57218;DHT22;43078;52.972;6.482;2022-12-18T12:46:08;-1.40;99.90
57218;DHT22;43078;52.972;6.482;2022-12-18T12:48:47;-1.30;99.90
57218;DHT22;43078;52.972;6.482;2022-12-18T12:53:45;-1.30;99.90
57218;DHT22;43078;52.972;6.482;2022-12-18T12:56:13;-1.20;99.90
57218;DHT22;43078;52.972;6.482;2022-12-18T12:59:10;-1.20;99.90
57218;DHT22;43078;52.972;6.482;2022-12-18T13:02:00;-1.20;99.90
57218;DHT22;43078;52.972;6.482;2022-12-18T13:04:47;-1.20;99.90
57218;DHT22;43078;52.972;6.482;2022-12-18T13:10:13;-1.10;99.90
57218;DHT22;43078;52.972;6.482;2022-12-18T13:12:59;-1.10;99.90
57218;DHT22;43078;52.972;6.482;2022-12-18T13:18:28;-1.10;99.90
57218;DHT22;43078;52.972;6.482;2022-12-18T13:25:50;-1.00;99.90
57218;DHT22;43078;52.972;6.482;2022-12-18T13:28:18;-1.00;99.90
57218;DHT22;43078;52.972;6.482;2022-12-18T13:38:33;-0.90;99.90
57218;DHT22;43078;52.972;6.482;2022-12-18T13:41:01;-0.80;99.90
57218;DHT22;43078;52.972;6.482;2022-12-18T13:43:43;-0.80;99.90
57218;DHT22;43078;52.972;6.482;2022-12-18T13:46:28;-0.80;99.90
57218;DHT22;43078;52.972;6.482;2022-12-18T13:51:43;-0.80;99.90
57218;DHT22;43078;52.972;6.482;2022-12-18T13:56:47;-0.70;99.90
57218;DHT22;43078;52.972;6.482;2022-12-18T14:04:11;-0.70;99.90
57218;DHT22;43078;52.972;6.482;2022-12-18T14:06:38;-0.60;99.90
57218;DHT22;43078;52.972;6.482;2022-12-18T14:09:04;-0.60;99.90
57218;DHT22;43078;52.972;6.482;2022-12-18T14:11:30;-0.70;99.90
57218;DHT22;43078;52.972;6.482;2022-12-18T14:13:56;-0.60;99.90
57218;DHT22;43078;52.972;6.482;2022-12-18T14:16:22;-0.60;99.90
57218;DHT22;43078;52.972;6.482;2022-12-18T14:18:52;-0.60;99.90
57218;DHT22;43078;52.972;6.482;2022-12-18T14:21:21;-0.60;99.90
57218;DHT22;43078;52.972;6.482;2022-12-18T14:23:47;-0.60;99.90
57218;DHT22;43078;52.972;6.482;2022-12-18T14:26:29;-0.60;99.90
57218;DHT22;43078;52.972;6.482;2022-12-18T14:28:56;-0.60;99.90
57218;DHT22;43078;52.972;6.482;2022-12-18T14:31:25;-0.60;99.90
57218;DHT22;43078;52.972;6.482;2022-12-18T14:33:51;-0.60;99.90
57218;DHT22;43078;52.972;6.482;2022-12-18T14:36:20;-0.60;99.90
57218;DHT22;43078;52.972;6.482;2022-12-18T14:39:16;-0.60;99.90
57218;DHT22;43078;52.972;6.482;2022-12-18T14:41:42;-0.50;99.90
57218;DHT22;43078;52.972;6.482;2022-12-18T14:44:12;-0.60;99.90
57218;DHT22;43078;52.972;6.482;2022-12-18T14:46:39;-0.50;99.90
57218;DHT22;43078;52.972;6.482;2022-12-18T14:49:29;-0.50;99.90
57218;DHT22;43078;52.972;6.482;2022-12-18T14:52:36;-0.50;99.90
57218;DHT22;43078;52.972;6.482;2022-12-18T14:55:01;-0.60;99.90
57218;DHT22;43078;52.972;6.482;2022-12-18T14:57:36;-0.60;99.90
57218;DHT22;43078;52.972;6.482;2022-12-18T15:00:05;-0.60;99.90
57218;DHT22;43078;52.972;6.482;2022-12-18T15:02:31;-0.60;99.90
57218;DHT22;43078;52.972;6.482;2022-12-18T15:05:14;-0.50;99.80
57218;DHT22;43078;52.972;6.482;2022-12-18T15:07:52;-0.50;99.80
57218;DHT22;43078;52.972;6.482;2022-12-18T15:10:26;-0.50;99.80
57218;DHT22;43078;52.972;6.482;2022-12-18T15:18:04;-0.50;99.90
57218;DHT22;43078;52.972;6.482;2022-12-18T15:20:32;-0.50;99.90
57218;DHT22;43078;52.972;6.482;2022-12-18T15:22:58;-0.60;99.90
57218;DHT22;43078;52.972;6.482;2022-12-18T15:25:45;-0.60;99.90
57218;DHT22;43078;52.972;6.482;2022-12-18T15:28:21;-0.60;99.90
57218;DHT22;43078;52.972;6.482;2022-12-18T15:31:03;-0.50;99.90
57218;DHT22;43078;52.972;6.482;2022-12-18T15:33:37;-0.50;99.90
57218;DHT22;43078;52.972;6.482;2022-12-18T15:36:08;-0.60;99.90
57218;DHT22;43078;52.972;6.482;2022-12-18T15:38:34;-0.60;99.90
57218;DHT22;43078;52.972;6.482;2022-12-18T15:41:00;-0.60;99.90
57218;DHT22;43078;52.972;6.482;2022-12-18T15:43:27;-0.60;99.90
57218;DHT22;43078;52.972;6.482;2022-12-18T15:46:03;-0.50;99.90
57218;DHT22;43078;52.972;6.482;2022-12-18T15:48:29;-0.60;99.90
57218;DHT22;43078;52.972;6.482;2022-12-18T15:50:56;-0.60;99.90
57218;DHT22;43078;52.972;6.482;2022-12-18T15:53:24;-0.60;99.90
57218;DHT22;43078;52.972;6.482;2022-12-18T15:55:50;-0.60;99.90
57218;DHT22;43078;52.972;6.482;2022-12-18T15:58:34;-0.60;99.90
57218;DHT22;43078;52.972;6.482;2022-12-18T16:01:01;-0.60;99.90
57218;DHT22;43078;52.972;6.482;2022-12-18T16:03:27;-0.50;99.90
57218;DHT22;43078;52.972;6.482;2022-12-18T16:05:55;-0.60;99.90
57218;DHT22;43078;52.972;6.482;2022-12-18T16:08:23;-0.60;99.90
57218;DHT22;43078;52.972;6.482;2022-12-18T16:10:49;-0.60;99.90
57218;DHT22;43078;52.972;6.482;2022-12-18T16:13:16;-0.60;99.90
57218;DHT22;43078;52.972;6.482;2022-12-18T16:15:43;-0.60;99.90
57218;DHT22;43078;52.972;6.482;2022-12-18T16:18:09;-0.60;99.90
57218;DHT22;43078;52.972;6.482;2022-12-18T16:20:34;-0.60;99.90
57218;DHT22;43078;52.972;6.482;2022-12-18T16:23:00;-0.60;99.90
57218;DHT22;43078;52.972;6.482;2022-12-18T16:25:28;-0.60;99.90
57218;DHT22;43078;52.972;6.482;2022-12-18T16:27:55;-0.60;99.90
57218;DHT22;43078;52.972;6.482;2022-12-18T16:30:26;-0.60;99.90
57218;DHT22;43078;52.972;6.482;2022-12-18T16:32:54;-0.60;99.90
57218;DHT22;43078;52.972;6.482;2022-12-18T16:35:20;-0.60;99.90
57218;DHT22;43078;52.972;6.482;2022-12-18T16:37:46;-0.60;99.90
57218;DHT22;43078;52.972;6.482;2022-12-18T16:40:14;-0.60;99.90
57218;DHT22;43078;52.972;6.482;2022-12-18T16:42:42;-0.60;99.90
57218;DHT22;43078;52.972;6.482;2022-12-18T16:45:09;-0.60;99.90
57218;DHT22;43078;52.972;6.482;2022-12-18T16:47:36;-0.60;99.90
57218;DHT22;43078;52.972;6.482;2022-12-18T16:50:01;-0.60;99.90
57218;DHT22;43078;52.972;6.482;2022-12-18T16:52:27;-0.60;99.90
57218;DHT22;43078;52.972;6.482;2022-12-18T16:54:53;-0.60;99.90
57218;DHT22;43078;52.972;6.482;2022-12-18T16:57:20;-0.50;99.90
57218;DHT22;43078;52.972;6.482;2022-12-18T16:59:46;-0.60;99.90
57218;DHT22;43078;52.972;6.482;2022-12-18T17:02:13;-0.50;99.90
57218;DHT22;43078;52.972;6.482;2022-12-18T17:04:40;-0.50;99.90
57218;DHT22;43078;52.972;6.482;2022-12-18T17:07:07;-0.50;99.90
57218;DHT22;43078;52.972;6.482;2022-12-18T17:09:32;-0.50;99.90
57218;DHT22;43078;52.972;6.482;2022-12-18T17:11:58;-0.50;99.90
57218;DHT22;43078;52.972;6.482;2022-12-18T17:14:25;-0.50;99.90
57218;DHT22;43078;52.972;6.482;2022-12-18T17:16:52;-0.50;99.90
57218;DHT22;43078;52.972;6.482;2022-12-18T17:19:19;-0.50;99.90
57218;DHT22;43078;52.972;6.482;2022-12-18T17:21:47;-0.50;99.90
57218;DHT22;43078;52.972;6.482;2022-12-18T17:24:14;-0.50;99.90
57218;DHT22;43078;52.972;6.482;2022-12-18T17:26:39;-0.50;99.90
57218;DHT22;43078;52.972;6.482;2022-12-18T17:29:05;-0.50;99.90
57218;DHT22;43078;52.972;6.482;2022-12-18T17:31:32;-0.50;99.90
57218;DHT22;43078;52.972;6.482;2022-12-18T17:33:58;-0.50;99.90
57218;DHT22;43078;52.972;6.482;2022-12-18T17:36:25;-0.50;99.90
57218;DHT22;43078;52.972;6.482;2022-12-18T17:38:57;-0.50;99.90
57218;DHT22;43078;52.972;6.482;2022-12-18T17:41:24;-0.50;99.90
57218;DHT22;43078;52.972;6.482;2022-12-18T17:43:55;-0.50;99.90
57218;DHT22;43078;52.972;6.482;2022-12-18T17:46:21;-0.50;99.90
57218;DHT22;43078;52.972;6.482;2022-12-18T17:48:47;-0.50;99.90
57218;DHT22;43078;52.972;6.482;2022-12-18T17:51:13;-0.40;99.90
57218;DHT22;43078;52.972;6.482;2022-12-18T17:53:39;-0.50;99.80